sensor_id;sensor_type;location;lat;lon;timestamp;temperature;humidity
52609;DHT22;38503;48.544;12.142;2023-02-27T00:00:52;-1.10;18.70
52609;DHT22;38503;48.544;12.142;2023-02-27T00:03:19;-1.10;18.20
52609;DHT22;38503;48.544;12.142;2023-02-27T00:05:45;-1.10;19.00
52609;DHT22;38503;48.544;12.142;2023-02-27T00:08:12;-1.00;19.00
52609;DHT22;38503;48.544;12.142;2023-02-27T00:10:39;-1.00;20.20
52609;DHT22;38503;48.544;12.142;2023-02-27T00:13:06;-1.00;17.10
52609;DHT22;38503;48.544;12.142;2023-02-27T00:15:33;-1.00;20.70
52609;DHT22;38503;48.544;12.142;2023-02-27T00:18:00;-1.00;17.00
52609;DHT22;38503;48.544;12.142;2023-02-27T00:20:27;-0.90;19.00
52609;DHT22;38503;48.544;12.142;2023-02-27T00:22:54;-0.90;19.50
52609;DHT22;38503;48.544;12.142;2023-02-27T00:25:20;-0.90;16.90
52609;DHT22;38503;48.544;12.142;2023-02-27T00:27:47;-1.00;15.30
52609;DHT22;38503;48.544;12.142;2023-02-27T00:30:15;-1.00;15.80
52609;DHT22;38503;48.544;12.142;2023-02-27T00:32:42;-1.00;17.30
52609;DHT22;38503;48.544;12.142;2023-02-27T00:35:11;-1.00;17.60
52609;DHT22;38503;48.544;12.142;2023-02-27T00:37:38;-0.90;17.40
52609;DHT22;38503;48.544;12.142;2023-02-27T00:40:06;-0.90;17.80
52609;DHT22;38503;48.544;12.142;2023-02-27T00:42:33;-1.00;21.20
52609;DHT22;38503;48.544;12.142;2023-02-27T00:45:00;-0.80;22.90
52609;DHT22;38503;48.544;12.142;2023-02-27T00:47:27;-0.90;21.40
52609;DHT22;38503;48.544;12.142;2023-02-27T00:49:54;-1.00;24.00
52609;DHT22;38503;48.544;12.142;2023-02-27T00:52:21;-1.00;23.00
52609;DHT22;38503;48.544;12.142;2023-02-27T00:54:47;-1.00;22.30
52609;DHT22;38503;48.544;12.142;2023-02-27T00:57:14;-1.00;22.40
52609;DHT22;38503;48.544;12.142;2023-02-27T00:59:42;-1.00;22.40
52609;DHT22;38503;48.544;12.142;2023-02-27T01:02:09;-1.00;22.10
52609;DHT22;38503;48.544;12.142;2023-02-27T01:04:36;-1.00;23.40
52609;DHT22;38503;48.544;12.142;2023-02-27T01:07:03;-1.00;25.40
52609;DHT22;38503;48.544;12.142;2023-02-27T01:09:29;-1.00;26.60
52609;DHT22;38503;48.544;12.142;2023-02-27T01:11:56;-1.00;28.90
52609;DHT22;38503;48.544;12.142;2023-02-27T01:14:23;-1.00;26.90
52609;DHT22;38503;48.544;12.142;2023-02-27T01:16:51;-1.10;28.50
52609;DHT22;38503;48.544;12.142;2023-02-27T01:19:18;-1.00;29.90
52609;DHT22;38503;48.544;12.142;2023-02-27T01:21:44;-1.00;28.90
52609;DHT22;38503;48.544;12.142;2023-02-27T01:24:11;-1.00;29.00
52609;DHT22;38503;48.544;12.142;2023-02-27T01:26:39;-1.00;28.60
52609;DHT22;38503;48.544;12.142;2023-02-27T01:29:06;-1.00;27.70
52609;DHT22;38503;48.544;12.142;2023-02-27T01:31:33;-1.00;28.60
52609;DHT22;38503;48.544;12.142;2023-02-27T01:34:00;-1.00;28.20
52609;DHT22;38503;48.544;12.142;2023-02-27T01:36:27;-1.00;26.40
52609;DHT22;38503;48.544;12.142;2023-02-27T01:38:54;-1.00;27.00
52609;DHT22;38503;48.544;12.142;2023-02-27T01:41:20;-1.00;28.10
52609;DHT22;38503;48.544;12.142;2023-02-27T01:46:23;-1.00;25.20
52609;DHT22;38503;48.544;12.142;2023-02-27T01:48:51;-1.00;25.30
52609;DHT22;38503;48.544;12.142;2023-02-27T01:51:26;-1.00;24.70
52609;DHT22;38503;48.544;12.142;2023-02-27T01:53:56;-1.00;25.30
52609;DHT22;38503;48.544;12.142;2023-02-27T01:56:27;-1.00;25.40
52609;DHT22;38503;48.544;12.142;2023-02-27T01:58:58;-1.00;26.50
52609;DHT22;38503;48.544;12.142;2023-02-27T02:01:26;-1.00;24.10
52609;DHT22;38503;48.544;12.142;2023-02-27T02:04:25;-1.00;24.80
52609;DHT22;38503;48.544;12.142;2023-02-27T02:07:15;-1.00;24.60
52609;DHT22;38503;48.544;12.142;2023-02-27T02:09:47;-1.10;27.20
52609;DHT22;38503;48.544;12.142;2023-02-27T02:12:17;-1.00;27.90
52609;DHT22;38503;48.544;12.142;2023-02-27T02:14:45;-1.00;27.00
52609;DHT22;38503;48.544;12.142;2023-02-27T02:42:44;-1.00;30.90
52609;DHT22;38503;48.544;12.142;2023-02-27T02:48:13;-0.90;28.90
52609;DHT22;38503;48.544;12.142;2023-02-27T02:51:06;-0.90;27.90
52609;DHT22;38503;48.544;12.142;2023-02-27T02:54:04;-1.00;28.60
52609;DHT22;38503;48.544;12.142;2023-02-27T02:57:01;-1.00;29.70
52609;DHT22;38503;48.544;12.142;2023-02-27T03:02:15;-1.00;29.30
52609;DHT22;38503;48.544;12.142;2023-02-27T03:04:50;-1.00;27.70
52609;DHT22;38503;48.544;12.142;2023-02-27T03:07:39;-1.00;27.40
52609;DHT22;38503;48.544;12.142;2023-02-27T03:12:38;-1.00;28.10
52609;DHT22;38503;48.544;12.142;2023-02-27T03:15:29;-1.00;28.00
52609;DHT22;38503;48.544;12.142;2023-02-27T03:18:14;-1.00;28.00
52609;DHT22;38503;48.544;12.142;2023-02-27T03:20:56;-1.00;29.50
52609;DHT22;38503;48.544;12.142;2023-02-27T03:23:33;-1.00;29.60
52609;DHT22;38503;48.544;12.142;2023-02-27T03:26:01;-1.00;30.20
52609;DHT22;38503;48.544;12.142;2023-02-27T03:28:33;-1.00;29.30
52609;DHT22;38503;48.544;12.142;2023-02-27T03:31:18;-1.00;29.50
52609;DHT22;38503;48.544;12.142;2023-02-27T03:33:51;-1.00;28.70
52609;DHT22;38503;48.544;12.142;2023-02-27T03:36:31;-1.00;28.40
52609;DHT22;38503;48.544;12.142;2023-02-27T03:39:05;-1.00;28.80
52609;DHT22;38503;48.544;12.142;2023-02-27T03:41:41;-1.00;30.00
52609;DHT22;38503;48.544;12.142;2023-02-27T03:44:54;-1.10;29.60
52609;DHT22;38503;48.544;12.142;2023-02-27T03:47:12;-1.00;31.30
52609;DHT22;38503;48.544;12.142;2023-02-27T03:49:38;-1.00;30.00
52609;DHT22;38503;48.544;12.142;2023-02-27T03:52:05;-1.00;32.50
52609;DHT22;38503;48.544;12.142;2023-02-27T03:54:39;-1.00;30.10
52609;DHT22;38503;48.544;12.142;2023-02-27T03:57:10;-1.00;29.90
52609;DHT22;38503;48.544;12.142;2023-02-27T03:59:40;-1.00;29.80
52609;DHT22;38503;48.544;12.142;2023-02-27T04:02:07;-1.00;28.30
52609;DHT22;38503;48.544;12.142;2023-02-27T04:04:34;-1.00;25.90
52609;DHT22;38503;48.544;12.142;2023-02-27T04:10:03;-1.00;26.80
52609;DHT22;38503;48.544;12.142;2023-02-27T04:13:08;-1.00;27.90
52609;DHT22;38503;48.544;12.142;2023-02-27T04:18:24;-1.00;29.00
52609;DHT22;38503;48.544;12.142;2023-02-27T04:21:17;-1.00;30.00
52609;DHT22;38503;48.544;12.142;2023-02-27T04:26:53;-0.90;22.60
52609;DHT22;38503;48.544;12.142;2023-02-27T04:32:21;-1.00;22.70
52609;DHT22;38503;48.544;12.142;2023-02-27T04:35:06;-1.00;24.60
52609;DHT22;38503;48.544;12.142;2023-02-27T04:37:44;-1.00;25.30
52609;DHT22;38503;48.544;12.142;2023-02-27T04:40:17;-1.00;25.50
52609;DHT22;38503;48.544;12.142;2023-02-27T04:42:47;-1.00;24.30
52609;DHT22;38503;48.544;12.142;2023-02-27T04:45:18;-1.00;25.20
52609;DHT22;38503;48.544;12.142;2023-02-27T04:47:50;-1.00;25.40
52609;DHT22;38503;48.544;12.142;2023-02-27T04:50:29;-1.10;23.80
52609;DHT22;38503;48.544;12.142;2023-02-27T04:55:52;-1.00;19.30
52609;DHT22;38503;48.544;12.142;2023-02-27T05:00:57;-0.90;20.30
52609;DHT22;38503;48.544;12.142;2023-02-27T05:03:32;-0.90;20.60
52609;DHT22;38503;48.544;12.142;2023-02-27T05:06:01;-0.90;20.20
52609;DHT22;38503;48.544;12.142;2023-02-27T05:08:46;-0.90;19.60
52609;DHT22;38503;48.544;12.142;2023-02-27T05:11:33;-0.90;22.00
52609;DHT22;38503;48.544;12.142;2023-02-27T05:17:06;-1.00;25.50
52609;DHT22;38503;48.544;12.142;2023-02-27T05:19:37;-1.00;25.50
52609;DHT22;38503;48.544;12.142;2023-02-27T05:33:29;-1.00;30.00
52609;DHT22;38503;48.544;12.142;2023-02-27T05:36:16;-1.10;28.30
52609;DHT22;38503;48.544;12.142;2023-02-27T05:38:58;-1.00;27.40
52609;DHT22;38503;48.544;12.142;2023-02-27T05:44:17;-1.00;25.00
52609;DHT22;38503;48.544;12.142;2023-02-27T05:46:52;-1.00;23.50
52609;DHT22;38503;48.544;12.142;2023-02-27T05:49:26;-1.00;23.90
52609;DHT22;38503;48.544;12.142;2023-02-27T05:51:57;-1.10;24.40
52609;DHT22;38503;48.544;12.142;2023-02-27T05:57:10;-1.00;22.40
52609;DHT22;38503;48.544;12.142;2023-02-27T05:59:46;-1.00;21.20
52609;DHT22;38503;48.544;12.142;2023-02-27T06:02:13;-1.00;21.80
52609;DHT22;38503;48.544;12.142;2023-02-27T06:04:40;-1.00;25.50
52609;DHT22;38503;48.544;12.142;2023-02-27T06:07:07;-1.00;23.80
52609;DHT22;38503;48.544;12.142;2023-02-27T06:09:34;-1.00;19.40
52609;DHT22;38503;48.544;12.142;2023-02-27T06:12:01;-0.90;21.20
52609;DHT22;38503;48.544;12.142;2023-02-27T06:14:28;-0.90;18.10
52609;DHT22;38503;48.544;12.142;2023-02-27T06:16:55;-0.90;16.50
52609;DHT22;38503;48.544;12.142;2023-02-27T06:19:21;-0.90;12.40
52609;DHT22;38503;48.544;12.142;2023-02-27T06:21:48;-1.00;9.70
52609;DHT22;38503;48.544;12.142;2023-02-27T06:24:15;-1.00;10.70
52609;DHT22;38503;48.544;12.142;2023-02-27T06:26:42;-1.00;10.70
52609;DHT22;38503;48.544;12.142;2023-02-27T06:29:09;-0.90;5.60
52609;DHT22;38503;48.544;12.142;2023-02-27T06:31:35;-0.90;9.20
52609;DHT22;38503;48.544;12.142;2023-02-27T06:34:02;-0.90;5.90
52609;DHT22;38503;48.544;12.142;2023-02-27T06:36:29;-0.90;7.20
52609;DHT22;38503;48.544;12.142;2023-02-27T06:38:56;-0.80;3.10
52609;DHT22;38503;48.544;12.142;2023-02-27T06:41:23;-0.90;4.50
52609;DHT22;38503;48.544;12.142;2023-02-27T06:43:50;-0.90;2.20
52609;DHT22;38503;48.544;12.142;2023-02-27T06:46:17;-0.90;1.30
52609;DHT22;38503;48.544;12.142;2023-02-27T06:48:43;-0.90;1.00
52609;DHT22;38503;48.544;12.142;2023-02-27T06:51:11;-0.90;3.60
52609;DHT22;38503;48.544;12.142;2023-02-27T06:53:37;-0.90;1.00
52609;DHT22;38503;48.544;12.142;2023-02-27T06:56:04;-0.90;1.20
52609;DHT22;38503;48.544;12.142;2023-02-27T06:58:31;-0.80;1.30
52609;DHT22;38503;48.544;12.142;2023-02-27T07:00:59;-0.90;1.00
52609;DHT22;38503;48.544;12.142;2023-02-27T07:03:26;-0.80;1.00
52609;DHT22;38503;48.544;12.142;2023-02-27T07:05:53;-0.80;1.00
52609;DHT22;38503;48.544;12.142;2023-02-27T07:08:20;-0.80;1.00
52609;DHT22;38503;48.544;12.142;2023-02-27T07:10:47;-0.80;1.00
52609;DHT22;38503;48.544;12.142;2023-02-27T07:13:15;-0.70;1.00
52609;DHT22;38503;48.544;12.142;2023-02-27T07:15:45;-0.60;1.00
52609;DHT22;38503;48.544;12.142;2023-02-27T07:18:12;-0.50;1.00
52609;DHT22;38503;48.544;12.142;2023-02-27T07:20:39;-0.50;1.00
52609;DHT22;38503;48.544;12.142;2023-02-27T07:23:06;-0.40;1.00
52609;DHT22;38503;48.544;12.142;2023-02-27T07:25:32;-0.30;1.00
52609;DHT22;38503;48.544;12.142;2023-02-27T07:27:59;-0.20;1.00
52609;DHT22;38503;48.544;12.142;2023-02-27T07:30:26;-0.10;1.00
52609;DHT22;38503;48.544;12.142;2023-02-27T07:32:53;0.10;1.00
52609;DHT22;38503;48.544;12.142;2023-02-27T07:35:19;0.30;1.00
52609;DHT22;38503;48.544;12.142;2023-02-27T07:37:46;0.60;1.00
52609;DHT22;38503;48.544;12.142;2023-02-27T07:40:13;0.70;1.00
52609;DHT22;38503;48.544;12.142;2023-02-27T07:42:40;1.00;1.00
52609;DHT22;38503;48.544;12.142;2023-02-27T07:45:07;1.20;96.30
52609;DHT22;38503;48.544;12.142;2023-02-27T07:47:35;1.60;95.80
52609;DHT22;38503;48.544;12.142;2023-02-27T07:50:02;2.00;94.70
52609;DHT22;38503;48.544;12.142;2023-02-27T07:52:31;1.80;94.60
52609;DHT22;38503;48.544;12.142;2023-02-27T07:54:58;1.50;94.40
52609;DHT22;38503;48.544;12.142;2023-02-27T07:57:25;1.50;94.30
52609;DHT22;38503;48.544;12.142;2023-02-27T07:59:51;1.20;99.90
52609;DHT22;38503;48.544;12.142;2023-02-27T08:02:18;1.30;99.90
52609;DHT22;38503;48.544;12.142;2023-02-27T08:04:45;1.50;91.40
52609;DHT22;38503;48.544;12.142;2023-02-27T08:07:12;1.60;94.20
52609;DHT22;38503;48.544;12.142;2023-02-27T08:09:39;1.60;94.40
52609;DHT22;38503;48.544;12.142;2023-02-27T08:12:06;1.50;94.40
52609;DHT22;38503;48.544;12.142;2023-02-27T08:14:32;1.30;97.70
52609;DHT22;38503;48.544;12.142;2023-02-27T08:16:59;1.20;99.90
52609;DHT22;38503;48.544;12.142;2023-02-27T08:19:26;1.00;99.90
52609;DHT22;38503;48.544;12.142;2023-02-27T08:21:53;1.10;99.90
52609;DHT22;38503;48.544;12.142;2023-02-27T08:24:20;0.80;99.90
52609;DHT22;38503;48.544;12.142;2023-02-27T08:26:47;0.80;99.90
52609;DHT22;38503;48.544;12.142;2023-02-27T08:29:14;0.80;99.90
52609;DHT22;38503;48.544;12.142;2023-02-27T08:31:42;0.80;99.90
52609;DHT22;38503;48.544;12.142;2023-02-27T08:34:09;0.80;99.90
52609;DHT22;38503;48.544;12.142;2023-02-27T08:36:37;0.90;99.90
52609;DHT22;38503;48.544;12.142;2023-02-27T08:39:05;0.90;99.90
52609;DHT22;38503;48.544;12.142;2023-02-27T08:41:32;0.60;94.20
52609;DHT22;38503;48.544;12.142;2023-02-27T08:44:02;0.80;99.90
52609;DHT22;38503;48.544;12.142;2023-02-27T08:46:29;1.00;94.10
52609;DHT22;38503;48.544;12.142;2023-02-27T08:48:56;1.20;93.70
52609;DHT22;38503;48.544;12.142;2023-02-27T08:51:23;1.60;93.20
52609;DHT22;38503;48.544;12.142;2023-02-27T08:53:49;1.80;92.00
52609;DHT22;38503;48.544;12.142;2023-02-27T08:56:16;1.60;91.40
52609;DHT22;38503;48.544;12.142;2023-02-27T08:58:43;1.60;90.50
52609;DHT22;38503;48.544;12.142;2023-02-27T09:01:10;1.60;90.40
52609;DHT22;38503;48.544;12.142;2023-02-27T09:03:37;2.00;90.10
52609;DHT22;38503;48.544;12.142;2023-02-27T09:06:03;2.00;90.10
52609;DHT22;38503;48.544;12.142;2023-02-27T09:08:30;2.10;88.90
52609;DHT22;38503;48.544;12.142;2023-02-27T09:10:57;1.70;89.10
52609;DHT22;38503;48.544;12.142;2023-02-27T09:13:24;1.60;89.60
52609;DHT22;38503;48.544;12.142;2023-02-27T09:15:52;1.70;90.10
52609;DHT22;38503;48.544;12.142;2023-02-27T09:18:20;1.60;90.10
52609;DHT22;38503;48.544;12.142;2023-02-27T09:20:49;1.40;90.10
52609;DHT22;38503;48.544;12.142;2023-02-27T09:23:17;1.30;90.50
52609;DHT22;38503;48.544;12.142;2023-02-27T09:25:44;1.40;90.60
52609;DHT22;38503;48.544;12.142;2023-02-27T09:28:12;1.60;90.40
52609;DHT22;38503;48.544;12.142;2023-02-27T09:30:39;1.60;90.10
52609;DHT22;38503;48.544;12.142;2023-02-27T09:33:07;1.60;90.20
52609;DHT22;38503;48.544;12.142;2023-02-27T09:35:34;1.90;90.20
52609;DHT22;38503;48.544;12.142;2023-02-27T09:38:01;2.00;88.80
52609;DHT22;38503;48.544;12.142;2023-02-27T09:40:30;2.10;89.00
52609;DHT22;38503;48.544;12.142;2023-02-27T09:43:06;2.00;88.00
52609;DHT22;38503;48.544;12.142;2023-02-27T09:45:36;2.00;87.80
52609;DHT22;38503;48.544;12.142;2023-02-27T09:48:34;2.10;87.80
52609;DHT22;38503;48.544;12.142;2023-02-27T09:51:02;1.70;87.70
52609;DHT22;38503;48.544;12.142;2023-02-27T09:53:37;1.90;87.90
52609;DHT22;38503;48.544;12.142;2023-02-27T09:56:28;1.90;87.30
52609;DHT22;38503;48.544;12.142;2023-02-27T09:59:12;1.70;86.40
52609;DHT22;38503;48.544;12.142;2023-02-27T10:01:54;1.70;86.60
52609;DHT22;38503;48.544;12.142;2023-02-27T10:09:56;1.80;86.80
52609;DHT22;38503;48.544;12.142;2023-02-27T10:12:52;1.70;85.60
52609;DHT22;38503;48.544;12.142;2023-02-27T10:15:30;1.50;84.60
52609;DHT22;38503;48.544;12.142;2023-02-27T10:21:22;1.30;83.80
52609;DHT22;38503;48.544;12.142;2023-02-27T10:23:54;1.20;84.70
52609;DHT22;38503;48.544;12.142;2023-02-27T10:26:32;1.40;85.30
52609;DHT22;38503;48.544;12.142;2023-02-27T10:32:07;1.30;84.50
52609;DHT22;38503;48.544;12.142;2023-02-27T10:34:39;1.60;84.50
52609;DHT22;38503;48.544;12.142;2023-02-27T10:37:12;1.90;84.00
52609;DHT22;38503;48.544;12.142;2023-02-27T10:39:48;2.00;83.50
52609;DHT22;38503;48.544;12.142;2023-02-27T10:42:17;1.90;84.20
52609;DHT22;38503;48.544;12.142;2023-02-27T10:44:44;1.80;83.80
52609;DHT22;38503;48.544;12.142;2023-02-27T10:47:15;1.70;83.10
52609;DHT22;38503;48.544;12.142;2023-02-27T10:49:42;1.60;84.50
52609;DHT22;38503;48.544;12.142;2023-02-27T10:52:12;1.50;84.00
52609;DHT22;38503;48.544;12.142;2023-02-27T10:54:40;1.60;83.80
52609;DHT22;38503;48.544;12.142;2023-02-27T11:00:58;1.50;84.80
52609;DHT22;38503;48.544;12.142;2023-02-27T11:03:00;1.60;84.60
52609;DHT22;38503;48.544;12.142;2023-02-27T11:05:34;1.40;85.40
52609;DHT22;38503;48.544;12.142;2023-02-27T11:08:25;1.70;85.10
52609;DHT22;38503;48.544;12.142;2023-02-27T11:11:11;2.10;85.00
52609;DHT22;38503;48.544;12.142;2023-02-27T11:13:42;2.00;83.80
52609;DHT22;38503;48.544;12.142;2023-02-27T11:16:15;1.80;83.90
52609;DHT22;38503;48.544;12.142;2023-02-27T11:18:44;1.80;83.80
52609;DHT22;38503;48.544;12.142;2023-02-27T11:21:23;1.80;83.20
52609;DHT22;38503;48.544;12.142;2023-02-27T11:23:58;1.90;83.20
52609;DHT22;38503;48.544;12.142;2023-02-27T11:26:59;2.10;82.60
52609;DHT22;38503;48.544;12.142;2023-02-27T11:29:19;1.80;82.90
52609;DHT22;38503;48.544;12.142;2023-02-27T11:31:57;1.60;83.30
52609;DHT22;38503;48.544;12.142;2023-02-27T11:34:31;1.70;83.70
52609;DHT22;38503;48.544;12.142;2023-02-27T11:39:38;1.60;83.30
52609;DHT22;38503;48.544;12.142;2023-02-27T11:42:21;1.60;83.60
52609;DHT22;38503;48.544;12.142;2023-02-27T11:44:53;1.60;84.30
52609;DHT22;38503;48.544;12.142;2023-02-27T11:47:33;1.60;85.00
52609;DHT22;38503;48.544;12.142;2023-02-27T11:53:19;1.90;84.60
52609;DHT22;38503;48.544;12.142;2023-02-27T11:55:49;2.10;83.70
52609;DHT22;38503;48.544;12.142;2023-02-27T11:58:21;2.70;82.90
52609;DHT22;38503;48.544;12.142;2023-02-27T12:00:57;3.20;81.20
52609;DHT22;38503;48.544;12.142;2023-02-27T12:03:41;3.30;81.00
52609;DHT22;38503;48.544;12.142;2023-02-27T12:12:28;3.70;79.10
52609;DHT22;38503;48.544;12.142;2023-02-27T12:14:58;4.10;76.80
52609;DHT22;38503;48.544;12.142;2023-02-27T12:17:33;3.90;76.70
52609;DHT22;38503;48.544;12.142;2023-02-27T12:20:22;3.90;75.90
52609;DHT22;38503;48.544;12.142;2023-02-27T12:22:52;4.10;75.70
52609;DHT22;38503;48.544;12.142;2023-02-27T12:28:16;3.00;77.50
52609;DHT22;38503;48.544;12.142;2023-02-27T12:30:53;2.90;78.30
52609;DHT22;38503;48.544;12.142;2023-02-27T12:33:39;2.80;78.30
52609;DHT22;38503;48.544;12.142;2023-02-27T12:36:11;2.80;78.70
52609;DHT22;38503;48.544;12.142;2023-02-27T12:38:39;2.80;78.80
52609;DHT22;38503;48.544;12.142;2023-02-27T12:49:43;2.40;78.40
52609;DHT22;38503;48.544;12.142;2023-02-27T12:55:25;2.10;79.80
52609;DHT22;38503;48.544;12.142;2023-02-27T12:58:16;2.30;80.10
52609;DHT22;38503;48.544;12.142;2023-02-27T13:00:50;2.50;81.50
52609;DHT22;38503;48.544;12.142;2023-02-27T13:17:11;2.00;82.10
52609;DHT22;38503;48.544;12.142;2023-02-27T13:20:03;2.20;82.20
52609;DHT22;38503;48.544;12.142;2023-02-27T13:22:52;2.20;82.20
52609;DHT22;38503;48.544;12.142;2023-02-27T13:25:21;2.10;82.20
52609;DHT22;38503;48.544;12.142;2023-02-27T13:27:54;2.00;82.00
52609;DHT22;38503;48.544;12.142;2023-02-27T13:33:00;2.00;81.40
52609;DHT22;38503;48.544;12.142;2023-02-27T13:36:26;2.00;81.10
52609;DHT22;38503;48.544;12.142;2023-02-27T13:38:46;2.00;80.50
52609;DHT22;38503;48.544;12.142;2023-02-27T13:43:47;2.10;80.10
52609;DHT22;38503;48.544;12.142;2023-02-27T13:46:30;2.00;80.30
52609;DHT22;38503;48.544;12.142;2023-02-27T13:49:21;2.20;80.70
52609;DHT22;38503;48.544;12.142;2023-02-27T13:51:55;2.10;80.60
52609;DHT22;38503;48.544;12.142;2023-02-27T13:54:32;2.00;80.40
52609;DHT22;38503;48.544;12.142;2023-02-27T13:59:34;2.00;80.60
52609;DHT22;38503;48.544;12.142;2023-02-27T14:04:32;2.00;80.80
52609;DHT22;38503;48.544;12.142;2023-02-27T14:07:10;2.10;80.90
52609;DHT22;38503;48.544;12.142;2023-02-27T14:09:40;2.10;80.90
52609;DHT22;38503;48.544;12.142;2023-02-27T14:12:39;1.90;80.10
52609;DHT22;38503;48.544;12.142;2023-02-27T14:17:53;1.90;80.90
52609;DHT22;38503;48.544;12.142;2023-02-27T14:23:25;2.00;79.80
52609;DHT22;38503;48.544;12.142;2023-02-27T14:26:01;1.90;79.10
52609;DHT22;38503;48.544;12.142;2023-02-27T14:28:40;1.90;80.10
52609;DHT22;38503;48.544;12.142;2023-02-27T14:31:30;2.10;80.70
52609;DHT22;38503;48.544;12.142;2023-02-27T14:33:59;1.90;80.50
52609;DHT22;38503;48.544;12.142;2023-02-27T14:36:39;2.00;81.10
52609;DHT22;38503;48.544;12.142;2023-02-27T14:39:19;2.00;80.50
52609;DHT22;38503;48.544;12.142;2023-02-27T14:44:21;1.70;82.20
52609;DHT22;38503;48.544;12.142;2023-02-27T14:46:49;1.90;81.20
52609;DHT22;38503;48.544;12.142;2023-02-27T14:51:43;1.70;80.40
52609;DHT22;38503;48.544;12.142;2023-02-27T14:54:16;1.70;80.70
52609;DHT22;38503;48.544;12.142;2023-02-27T14:56:58;1.70;80.70
52609;DHT22;38503;48.544;12.142;2023-02-27T14:59:31;1.50;80.60
52609;DHT22;38503;48.544;12.142;2023-02-27T15:02:00;1.50;80.50
52609;DHT22;38503;48.544;12.142;2023-02-27T15:04:31;1.60;80.10
52609;DHT22;38503;48.544;12.142;2023-02-27T15:06:59;1.60;80.70
52609;DHT22;38503;48.544;12.142;2023-02-27T15:09:41;1.60;80.90
52609;DHT22;38503;48.544;12.142;2023-02-27T15:12:16;1.60;80.70
52609;DHT22;38503;48.544;12.142;2023-02-27T15:14:46;1.70;80.80
52609;DHT22;38503;48.544;12.142;2023-02-27T15:17:21;1.70;81.20
52609;DHT22;38503;48.544;12.142;2023-02-27T15:19:53;1.70;80.70
52609;DHT22;38503;48.544;12.142;2023-02-27T15:22:27;1.70;80.70
52609;DHT22;38503;48.544;12.142;2023-02-27T15:25:05;1.60;81.10
52609;DHT22;38503;48.544;12.142;2023-02-27T15:27:33;1.50;81.20
52609;DHT22;38503;48.544;12.142;2023-02-27T15:30:03;1.60;81.50
52609;DHT22;38503;48.544;12.142;2023-02-27T15:32:33;1.50;81.90
52609;DHT22;38503;48.544;12.142;2023-02-27T15:35:14;1.60;82.20
52609;DHT22;38503;48.544;12.142;2023-02-27T15:37:47;1.60;82.30
52609;DHT22;38503;48.544;12.142;2023-02-27T15:40:20;1.60;82.40
52609;DHT22;38503;48.544;12.142;2023-02-27T15:42:48;1.50;82.50
52609;DHT22;38503;48.544;12.142;2023-02-27T15:45:18;1.60;1.00
52609;DHT22;38503;48.544;12.142;2023-02-27T15:47:46;1.40;82.50
52609;DHT22;38503;48.544;12.142;2023-02-27T15:52:50;1.40;82.50
52609;DHT22;38503;48.544;12.142;2023-02-27T15:55:24;1.40;1.00
52609;DHT22;38503;48.544;12.142;2023-02-27T15:57:52;1.30;80.70
52609;DHT22;38503;48.544;12.142;2023-02-27T16:00:30;1.20;18.90
52609;DHT22;38503;48.544;12.142;2023-02-27T16:02:58;1.10;1.70
52609;DHT22;38503;48.544;12.142;2023-02-27T16:05:40;1.20;99.90
52609;DHT22;38503;48.544;12.142;2023-02-27T16:08:12;1.10;1.00
52609;DHT22;38503;48.544;12.142;2023-02-27T16:10:43;1.00;7.70
52609;DHT22;38503;48.544;12.142;2023-02-27T16:13:33;1.00;45.40
52609;DHT22;38503;48.544;12.142;2023-02-27T16:18:55;1.00;99.90
52609;DHT22;38503;48.544;12.142;2023-02-27T16:21:27;1.00;82.40
52609;DHT22;38503;48.544;12.142;2023-02-27T16:24:17;1.00;82.50
52609;DHT22;38503;48.544;12.142;2023-02-27T16:26:50;1.00;94.90
52609;DHT22;38503;48.544;12.142;2023-02-27T16:29:22;1.00;76.00
52609;DHT22;38503;48.544;12.142;2023-02-27T16:31:54;0.90;99.90
52609;DHT22;38503;48.544;12.142;2023-02-27T16:34:36;1.00;1.00
52609;DHT22;38503;48.544;12.142;2023-02-27T16:37:20;1.00;99.90
52609;DHT22;38503;48.544;12.142;2023-02-27T16:39:50;0.90;1.00
52609;DHT22;38503;48.544;12.142;2023-02-27T16:42:17;0.80;58.50
52609;DHT22;38503;48.544;12.142;2023-02-27T16:44:44;0.80;43.90
52609;DHT22;38503;48.544;12.142;2023-02-27T16:47:11;0.80;99.90
52609;DHT22;38503;48.544;12.142;2023-02-27T16:49:38;0.90;99.90
52609;DHT22;38503;48.544;12.142;2023-02-27T16:52:10;0.70;99.90
52609;DHT22;38503;48.544;12.142;2023-02-27T16:54:37;0.80;1.00
52609;DHT22;38503;48.544;12.142;2023-02-27T16:57:04;0.70;1.00
52609;DHT22;38503;48.544;12.142;2023-02-27T16:59:33;0.70;99.90
52609;DHT22;38503;48.544;12.142;2023-02-27T17:02:03;0.70;20.80
52609;DHT22;38503;48.544;12.142;2023-02-27T17:04:31;0.60;1.00
52609;DHT22;38503;48.544;12.142;2023-02-27T17:07:00;0.60;99.90
52609;DHT22;38503;48.544;12.142;2023-02-27T17:09:27;0.50;99.90
52609;DHT22;38503;48.544;12.142;2023-02-27T17:11:55;0.60;1.00
52609;DHT22;38503;48.544;12.142;2023-02-27T17:14:23;0.50;99.90
52609;DHT22;38503;48.544;12.142;2023-02-27T17:16:50;0.50;99.90
52609;DHT22;38503;48.544;12.142;2023-02-27T17:19:17;0.50;99.90
52609;DHT22;38503;48.544;12.142;2023-02-27T17:21:47;0.50;1.00
52609;DHT22;38503;48.544;12.142;2023-02-27T17:24:13;0.40;1.00
52609;DHT22;38503;48.544;12.142;2023-02-27T17:26:40;0.40;99.90
52609;DHT22;38503;48.544;12.142;2023-02-27T17:29:07;0.50;89.40
52609;DHT22;38503;48.544;12.142;2023-02-27T17:31:35;0.40;1.00
52609;DHT22;38503;48.544;12.142;2023-02-27T17:34:03;0.40;99.90
52609;DHT22;38503;48.544;12.142;2023-02-27T17:36:30;0.30;99.90
52609;DHT22;38503;48.544;12.142;2023-02-27T17:38:58;0.30;96.50
52609;DHT22;38503;48.544;12.142;2023-02-27T17:41:28;0.30;1.00
52609;DHT22;38503;48.544;12.142;2023-02-27T17:43:56;0.30;1.00
52609;DHT22;38503;48.544;12.142;2023-02-27T17:46:25;0.20;99.90
52609;DHT22;38503;48.544;12.142;2023-02-27T17:48:52;0.20;99.90
52609;DHT22;38503;48.544;12.142;2023-02-27T17:51:21;0.20;1.00
52609;DHT22;38503;48.544;12.142;2023-02-27T17:53:48;0.20;1.00
52609;DHT22;38503;48.544;12.142;2023-02-27T17:56:15;0.30;1.00
52609;DHT22;38503;48.544;12.142;2023-02-27T17:58:42;0.20;1.00
52609;DHT22;38503;48.544;12.142;2023-02-27T18:01:17;0.20;1.00
52609;DHT22;38503;48.544;12.142;2023-02-27T18:03:47;0.20;1.00
52609;DHT22;38503;48.544;12.142;2023-02-27T18:06:16;0.20;1.00
52609;DHT22;38503;48.544;12.142;2023-02-27T18:08:43;0.20;1.00
52609;DHT22;38503;48.544;12.142;2023-02-27T18:11:11;0.20;99.90
52609;DHT22;38503;48.544;12.142;2023-02-27T18:13:39;0.20;1.00
52609;DHT22;38503;48.544;12.142;2023-02-27T18:16:06;0.20;99.90
52609;DHT22;38503;48.544;12.142;2023-02-27T18:18:35;0.20;99.90
52609;DHT22;38503;48.544;12.142;2023-02-27T18:21:21;0.10;1.00
52609;DHT22;38503;48.544;12.142;2023-02-27T18:23:51;0.20;99.90
52609;DHT22;38503;48.544;12.142;2023-02-27T18:26:21;0.10;1.00
52609;DHT22;38503;48.544;12.142;2023-02-27T18:28:58;0.10;1.00
52609;DHT22;38503;48.544;12.142;2023-02-27T18:31:28;0.10;1.00